One American Place, Louisiana
Current Conditions -  °F | °C
As of 6:53 AM on Monday 20 Oct 2014 (Local Time) from KBTR Reporting Station
Clear Clear  
Wind Chill: 52°   Ceiling: Unl
Heat Index: 52°   Visibility: 10mi
Dew Point: 49°   Wind: 5mph
Humidity: 89%   Direction: 30°NNE
Pressure: 30.05"   Gusts: NA
Location:  30.4285°N, 91.0224°W
Report Text: KBTR 201153Z 03004KT 10SM CLR 11/09 A3005 RMK AO2 SLP175 T01110094 10133 20106 53001 $
Loading
Personal Weather Stations






























Interactive Weather Map New forecast layout! Learn more

10-Day Weather Forecast

Advertisements
Track Severe Weather on mobile